sensor_id;sensor_type;location;lat;lon;timestamp;P1;durP1;ratioP1;P2;durP2;ratioP2
68365;SDS011;55283;51.466;5.478;2022-12-29T00:02:22;1.07;;;0.77;;
68365;SDS011;55283;51.466;5.478;2022-12-29T00:04:49;1.07;;;0.70;;
68365;SDS011;55283;51.466;5.478;2022-12-29T00:07:18;0.70;;;0.70;;
68365;SDS011;55283;51.466;5.478;2022-12-29T00:09:46;0.60;;;0.60;;
68365;SDS011;55283;51.466;5.478;2022-12-29T00:12:11;0.60;;;0.60;;
68365;SDS011;55283;51.466;5.478;2022-12-29T00:14:36;0.70;;;0.70;;
68365;SDS011;55283;51.466;5.478;2022-12-29T00:17:20;0.77;;;0.70;;
68365;SDS011;55283;51.466;5.478;2022-12-29T00:19:48;1.00;;;0.80;;
68365;SDS011;55283;51.466;5.478;2022-12-29T00:22:32;0.70;;;0.70;;
68365;SDS011;55283;51.466;5.478;2022-12-29T00:25:18;1.30;;;0.70;;
68365;SDS011;55283;51.466;5.478;2022-12-29T00:28:02;0.60;;;0.60;;
68365;SDS011;55283;51.466;5.478;2022-12-29T00:30:46;0.77;;;0.70;;
68365;SDS011;55283;51.466;5.478;2022-12-29T00:33:31;0.80;;;0.70;;
68365;SDS011;55283;51.466;5.478;2022-12-29T00:36:25;0.60;;;0.60;;
68365;SDS011;55283;51.466;5.478;2022-12-29T00:39:01;0.70;;;0.70;;
68365;SDS011;55283;51.466;5.478;2022-12-29T00:41:50;0.85;;;0.80;;
68365;SDS011;55283;51.466;5.478;2022-12-29T00:44:41;0.60;;;0.60;;
68365;SDS011;55283;51.466;5.478;2022-12-29T00:47:08;0.63;;;0.63;;
68365;SDS011;55283;51.466;5.478;2022-12-29T00:49:34;0.60;;;0.60;;
68365;SDS011;55283;51.466;5.478;2022-12-29T00:54:35;0.60;;;0.60;;
68365;SDS011;55283;51.466;5.478;2022-12-29T00:57:03;0.73;;;0.68;;
68365;SDS011;55283;51.466;5.478;2022-12-29T00:59:34;0.70;;;0.70;;
68365;SDS011;55283;51.466;5.478;2022-12-29T01:02:00;0.70;;;0.70;;
68365;SDS011;55283;51.466;5.478;2022-12-29T01:04:26;0.60;;;0.60;;
68365;SDS011;55283;51.466;5.478;2022-12-29T01:06:51;0.77;;;0.77;;
68365;SDS011;55283;51.466;5.478;2022-12-29T01:09:17;0.70;;;0.70;;
68365;SDS011;55283;51.466;5.478;2022-12-29T01:12:03;0.60;;;0.60;;
68365;SDS011;55283;51.466;5.478;2022-12-29T01:14:29;0.80;;;0.70;;
68365;SDS011;55283;51.466;5.478;2022-12-29T01:16:55;0.80;;;0.80;;
68365;SDS011;55283;51.466;5.478;2022-12-29T01:19:21;0.63;;;0.60;;
68365;SDS011;55283;51.466;5.478;2022-12-29T01:21:47;0.77;;;0.77;;
68365;SDS011;55283;51.466;5.478;2022-12-29T01:24:13;0.70;;;0.70;;
68365;SDS011;55283;51.466;5.478;2022-12-29T01:26:43;0.60;;;0.60;;
68365;SDS011;55283;51.466;5.478;2022-12-29T01:29:09;0.75;;;0.70;;
68365;SDS011;55283;51.466;5.478;2022-12-29T01:31:34;0.70;;;0.70;;
68365;SDS011;55283;51.466;5.478;2022-12-29T01:34:00;0.80;;;0.70;;
68365;SDS011;55283;51.466;5.478;2022-12-29T01:36:28;0.60;;;0.60;;
68365;SDS011;55283;51.466;5.478;2022-12-29T01:38:53;0.60;;;0.60;;
68365;SDS011;55283;51.466;5.478;2022-12-29T01:41:21;0.60;;;0.60;;
68365;SDS011;55283;51.466;5.478;2022-12-29T01:46:20;0.88;;;0.55;;
68365;SDS011;55283;51.466;5.478;2022-12-29T01:48:55;0.70;;;0.70;;
68365;SDS011;55283;51.466;5.478;2022-12-29T01:51:43;0.80;;;0.80;;
68365;SDS011;55283;51.466;5.478;2022-12-29T01:54:14;0.60;;;0.60;;
68365;SDS011;55283;51.466;5.478;2022-12-29T01:56:44;0.90;;;0.70;;
68365;SDS011;55283;51.466;5.478;2022-12-29T01:59:12;0.70;;;0.70;;
68365;SDS011;55283;51.466;5.478;2022-12-29T02:01:42;1.13;;;0.70;;
68365;SDS011;55283;51.466;5.478;2022-12-29T02:04:08;0.60;;;0.60;;
68365;SDS011;55283;51.466;5.478;2022-12-29T02:06:46;0.70;;;0.70;;
68365;SDS011;55283;51.466;5.478;2022-12-29T02:09:18;0.90;;;0.70;;
68365;SDS011;55283;51.466;5.478;2022-12-29T02:11:46;0.80;;;0.70;;
68365;SDS011;55283;51.466;5.478;2022-12-29T02:14:12;0.80;;;0.65;;
68365;SDS011;55283;51.466;5.478;2022-12-29T02:16:40;0.80;;;0.80;;
68365;SDS011;55283;51.466;5.478;2022-12-29T02:31:34;0.70;;;0.70;;
68365;SDS011;55283;51.466;5.478;2022-12-29T02:36:38;0.60;;;0.60;;
68365;SDS011;55283;51.466;5.478;2022-12-29T02:39:16;0.60;;;0.60;;
68365;SDS011;55283;51.466;5.478;2022-12-29T02:44:53;0.70;;;0.70;;
68365;SDS011;55283;51.466;5.478;2022-12-29T02:50:15;0.60;;;0.60;;
68365;SDS011;55283;51.466;5.478;2022-12-29T02:53:05;0.80;;;0.80;;
68365;SDS011;55283;51.466;5.478;2022-12-29T02:55:34;0.70;;;0.70;;
68365;SDS011;55283;51.466;5.478;2022-12-29T03:00:41;0.60;;;0.60;;
68365;SDS011;55283;51.466;5.478;2022-12-29T03:06:17;0.70;;;0.70;;
68365;SDS011;55283;51.466;5.478;2022-12-29T03:08:55;0.70;;;0.68;;
68365;SDS011;55283;51.466;5.478;2022-12-29T03:11:23;0.60;;;0.60;;
68365;SDS011;55283;51.466;5.478;2022-12-29T03:14:20;0.60;;;0.60;;
68365;SDS011;55283;51.466;5.478;2022-12-29T03:17:18;0.70;;;0.70;;
68365;SDS011;55283;51.466;5.478;2022-12-29T03:19:51;0.63;;;0.60;;
68365;SDS011;55283;51.466;5.478;2022-12-29T03:22:25;0.87;;;0.80;;
68365;SDS011;55283;51.466;5.478;2022-12-29T03:25:43;0.60;;;0.60;;
68365;SDS011;55283;51.466;5.478;2022-12-29T03:27:46;0.60;;;0.60;;
68365;SDS011;55283;51.466;5.478;2022-12-29T03:30:15;0.70;;;0.70;;
68365;SDS011;55283;51.466;5.478;2022-12-29T03:32:46;0.80;;;0.80;;
68365;SDS011;55283;51.466;5.478;2022-12-29T03:35:19;0.60;;;0.60;;
68365;SDS011;55283;51.466;5.478;2022-12-29T03:38:32;0.63;;;0.63;;
68365;SDS011;55283;51.466;5.478;2022-12-29T03:40:42;0.60;;;0.60;;
68365;SDS011;55283;51.466;5.478;2022-12-29T03:43:19;0.75;;;0.60;;
68365;SDS011;55283;51.466;5.478;2022-12-29T03:45:45;0.60;;;0.60;;
68365;SDS011;55283;51.466;5.478;2022-12-29T03:48:10;3.33;;;0.80;;
68365;SDS011;55283;51.466;5.478;2022-12-29T03:50:35;0.57;;;0.57;;
68365;SDS011;55283;51.466;5.478;2022-12-29T03:53:01;0.70;;;0.63;;
68365;SDS011;55283;51.466;5.478;2022-12-29T03:55:28;0.77;;;0.60;;
68365;SDS011;55283;51.466;5.478;2022-12-29T03:57:56;0.68;;;0.65;;
68365;SDS011;55283;51.466;5.478;2022-12-29T04:00:22;0.60;;;0.60;;
68365;SDS011;55283;51.466;5.478;2022-12-29T04:02:47;0.53;;;0.53;;
68365;SDS011;55283;51.466;5.478;2022-12-29T04:05:16;0.70;;;0.70;;
68365;SDS011;55283;51.466;5.478;2022-12-29T04:07:43;0.73;;;0.60;;
68365;SDS011;55283;51.466;5.478;2022-12-29T04:10:09;0.60;;;0.60;;
68365;SDS011;55283;51.466;5.478;2022-12-29T04:12:34;0.70;;;0.70;;
68365;SDS011;55283;51.466;5.478;2022-12-29T04:14:59;0.60;;;0.60;;
68365;SDS011;55283;51.466;5.478;2022-12-29T04:17:27;1.10;;;0.60;;
68365;SDS011;55283;51.466;5.478;2022-12-29T04:19:53;0.60;;;0.60;;
68365;SDS011;55283;51.466;5.478;2022-12-29T04:22:41;0.60;;;0.60;;
68365;SDS011;55283;51.466;5.478;2022-12-29T04:25:06;0.90;;;0.60;;
68365;SDS011;55283;51.466;5.478;2022-12-29T04:27:32;0.50;;;0.50;;
68365;SDS011;55283;51.466;5.478;2022-12-29T04:30:00;0.60;;;0.60;;
68365;SDS011;55283;51.466;5.478;2022-12-29T04:32:26;0.87;;;0.70;;
68365;SDS011;55283;51.466;5.478;2022-12-29T04:34:51;0.52;;;0.50;;
68365;SDS011;55283;51.466;5.478;2022-12-29T04:37:19;0.60;;;0.60;;
68365;SDS011;55283;51.466;5.478;2022-12-29T04:39:44;0.70;;;0.70;;
68365;SDS011;55283;51.466;5.478;2022-12-29T04:42:09;0.60;;;0.60;;
68365;SDS011;55283;51.466;5.478;2022-12-29T04:44:35;0.77;;;0.70;;
68365;SDS011;55283;51.466;5.478;2022-12-29T04:47:00;0.60;;;0.60;;
68365;SDS011;55283;51.466;5.478;2022-12-29T04:49:28;0.60;;;0.60;;
68365;SDS011;55283;51.466;5.478;2022-12-29T04:51:56;0.60;;;0.60;;
68365;SDS011;55283;51.466;5.478;2022-12-29T04:54:22;0.60;;;0.60;;
68365;SDS011;55283;51.466;5.478;2022-12-29T04:56:47;0.50;;;0.50;;
68365;SDS011;55283;51.466;5.478;2022-12-29T04:59:12;0.80;;;0.80;;
68365;SDS011;55283;51.466;5.478;2022-12-29T05:01:38;0.53;;;0.53;;
68365;SDS011;55283;51.466;5.478;2022-12-29T05:04:03;0.60;;;0.60;;
68365;SDS011;55283;51.466;5.478;2022-12-29T05:06:29;0.68;;;0.68;;
68365;SDS011;55283;51.466;5.478;2022-12-29T05:08:54;0.60;;;0.53;;
68365;SDS011;55283;51.466;5.478;2022-12-29T05:11:20;0.60;;;0.60;;
68365;SDS011;55283;51.466;5.478;2022-12-29T05:13:45;1.23;;;0.77;;
68365;SDS011;55283;51.466;5.478;2022-12-29T05:16:11;0.63;;;0.60;;
68365;SDS011;55283;51.466;5.478;2022-12-29T05:18:37;1.13;;;0.70;;
68365;SDS011;55283;51.466;5.478;2022-12-29T05:21:02;0.60;;;0.60;;
68365;SDS011;55283;51.466;5.478;2022-12-29T05:23:28;0.70;;;0.70;;
68365;SDS011;55283;51.466;5.478;2022-12-29T05:25:53;1.23;;;0.73;;
68365;SDS011;55283;51.466;5.478;2022-12-29T05:28:19;0.60;;;0.60;;
68365;SDS011;55283;51.466;5.478;2022-12-29T05:30:47;1.10;;;0.60;;
68365;SDS011;55283;51.466;5.478;2022-12-29T05:33:13;0.60;;;0.60;;
68365;SDS011;55283;51.466;5.478;2022-12-29T05:35:40;0.60;;;0.60;;
68365;SDS011;55283;51.466;5.478;2022-12-29T05:38:09;0.60;;;0.60;;
68365;SDS011;55283;51.466;5.478;2022-12-29T05:40:37;0.50;;;0.50;;
68365;SDS011;55283;51.466;5.478;2022-12-29T05:43:05;0.50;;;0.50;;
68365;SDS011;55283;51.466;5.478;2022-12-29T05:45:30;0.63;;;0.63;;
68365;SDS011;55283;51.466;5.478;2022-12-29T05:47:56;0.73;;;0.53;;
68365;SDS011;55283;51.466;5.478;2022-12-29T05:50:21;0.97;;;0.60;;
68365;SDS011;55283;51.466;5.478;2022-12-29T05:52:47;0.75;;;0.60;;
68365;SDS011;55283;51.466;5.478;2022-12-29T05:55:15;0.73;;;0.60;;
68365;SDS011;55283;51.466;5.478;2022-12-29T05:57:40;0.70;;;0.60;;
68365;SDS011;55283;51.466;5.478;2022-12-29T06:00:09;0.60;;;0.60;;
68365;SDS011;55283;51.466;5.478;2022-12-29T06:02:37;0.90;;;0.70;;
68365;SDS011;55283;51.466;5.478;2022-12-29T06:05:02;1.67;;;0.60;;
68365;SDS011;55283;51.466;5.478;2022-12-29T06:07:33;1.63;;;0.70;;
68365;SDS011;55283;51.466;5.478;2022-12-29T06:09:58;0.70;;;0.63;;
68365;SDS011;55283;51.466;5.478;2022-12-29T06:12:24;0.80;;;0.80;;
68365;SDS011;55283;51.466;5.478;2022-12-29T06:14:49;0.60;;;0.60;;
68365;SDS011;55283;51.466;5.478;2022-12-29T06:17:15;0.70;;;0.70;;
68365;SDS011;55283;51.466;5.478;2022-12-29T06:19:43;2.97;;;0.70;;
68365;SDS011;55283;51.466;5.478;2022-12-29T06:22:09;1.02;;;0.60;;
68365;SDS011;55283;51.466;5.478;2022-12-29T06:24:37;0.67;;;0.67;;
68365;SDS011;55283;51.466;5.478;2022-12-29T06:27:07;0.63;;;0.63;;
68365;SDS011;55283;51.466;5.478;2022-12-29T06:29:36;0.70;;;0.70;;
68365;SDS011;55283;51.466;5.478;2022-12-29T06:32:02;0.70;;;0.70;;
68365;SDS011;55283;51.466;5.478;2022-12-29T06:34:28;0.80;;;0.80;;
68365;SDS011;55283;51.466;5.478;2022-12-29T06:36:54;0.90;;;0.90;;
68365;SDS011;55283;51.466;5.478;2022-12-29T06:39:19;0.70;;;0.70;;
68365;SDS011;55283;51.466;5.478;2022-12-29T06:41:45;1.93;;;0.77;;
68365;SDS011;55283;51.466;5.478;2022-12-29T06:44:10;0.50;;;0.40;;
68365;SDS011;55283;51.466;5.478;2022-12-29T06:46:35;0.97;;;0.60;;
68365;SDS011;55283;51.466;5.478;2022-12-29T06:49:01;0.85;;;0.85;;
68365;SDS011;55283;51.466;5.478;2022-12-29T06:51:27;1.47;;;0.53;;
68365;SDS011;55283;51.466;5.478;2022-12-29T06:53:55;1.70;;;0.60;;
68365;SDS011;55283;51.466;5.478;2022-12-29T06:56:23;7.03;;;0.80;;
68365;SDS011;55283;51.466;5.478;2022-12-29T06:58:57;2.30;;;0.70;;
68365;SDS011;55283;51.466;5.478;2022-12-29T07:01:28;1.38;;;0.80;;
68365;SDS011;55283;51.466;5.478;2022-12-29T07:03:53;1.43;;;0.70;;
68365;SDS011;55283;51.466;5.478;2022-12-29T07:06:19;4.30;;;0.73;;
68365;SDS011;55283;51.466;5.478;2022-12-29T07:08:44;2.07;;;0.60;;
68365;SDS011;55283;51.466;5.478;2022-12-29T07:11:09;2.43;;;0.97;;
68365;SDS011;55283;51.466;5.478;2022-12-29T07:13:39;2.00;;;0.80;;
68365;SDS011;55283;51.466;5.478;2022-12-29T07:16:06;1.90;;;0.67;;
68365;SDS011;55283;51.466;5.478;2022-12-29T07:18:32;4.05;;;1.00;;
68365;SDS011;55283;51.466;5.478;2022-12-29T07:21:07;3.72;;;0.90;;
68365;SDS011;55283;51.466;5.478;2022-12-29T07:23:32;3.87;;;1.03;;
68365;SDS011;55283;51.466;5.478;2022-12-29T07:25:59;2.78;;;1.00;;
68365;SDS011;55283;51.466;5.478;2022-12-29T07:28:34;3.07;;;1.00;;
68365;SDS011;55283;51.466;5.478;2022-12-29T07:31:00;3.38;;;1.00;;
68365;SDS011;55283;51.466;5.478;2022-12-29T07:33:29;4.03;;;1.00;;
68365;SDS011;55283;51.466;5.478;2022-12-29T07:35:56;2.95;;;0.90;;
68365;SDS011;55283;51.466;5.478;2022-12-29T07:38:22;3.55;;;0.85;;
68365;SDS011;55283;51.466;5.478;2022-12-29T07:40:47;6.60;;;0.90;;
68365;SDS011;55283;51.466;5.478;2022-12-29T07:43:12;4.00;;;0.70;;
68365;SDS011;55283;51.466;5.478;2022-12-29T07:45:38;2.97;;;0.80;;
68365;SDS011;55283;51.466;5.478;2022-12-29T07:48:04;2.85;;;0.75;;
68365;SDS011;55283;51.466;5.478;2022-12-29T07:50:33;1.27;;;0.80;;
68365;SDS011;55283;51.466;5.478;2022-12-29T07:52:59;1.48;;;0.70;;
68365;SDS011;55283;51.466;5.478;2022-12-29T07:55:30;3.25;;;0.80;;
68365;SDS011;55283;51.466;5.478;2022-12-29T07:57:55;1.37;;;0.60;;
68365;SDS011;55283;51.466;5.478;2022-12-29T08:00:21;3.00;;;0.90;;
68365;SDS011;55283;51.466;5.478;2022-12-29T08:02:47;1.50;;;0.70;;
68365;SDS011;55283;51.466;5.478;2022-12-29T08:05:15;3.27;;;0.70;;
68365;SDS011;55283;51.466;5.478;2022-12-29T08:07:44;3.15;;;0.80;;
68365;SDS011;55283;51.466;5.478;2022-12-29T08:10:10;1.60;;;0.70;;
68365;SDS011;55283;51.466;5.478;2022-12-29T08:12:39;1.80;;;0.70;;
68365;SDS011;55283;51.466;5.478;2022-12-29T08:15:06;2.50;;;0.90;;
68365;SDS011;55283;51.466;5.478;2022-12-29T08:17:32;6.33;;;0.97;;
68365;SDS011;55283;51.466;5.478;2022-12-29T08:20:00;2.05;;;0.90;;
68365;SDS011;55283;51.466;5.478;2022-12-29T08:22:29;5.55;;;1.10;;
68365;SDS011;55283;51.466;5.478;2022-12-29T08:24:56;5.00;;;1.20;;
68365;SDS011;55283;51.466;5.478;2022-12-29T08:27:22;3.30;;;0.90;;
68365;SDS011;55283;51.466;5.478;2022-12-29T08:29:47;6.03;;;0.98;;
68365;SDS011;55283;51.466;5.478;2022-12-29T08:32:18;6.77;;;1.00;;
68365;SDS011;55283;51.466;5.478;2022-12-29T08:34:43;3.25;;;0.80;;
68365;SDS011;55283;51.466;5.478;2022-12-29T08:37:11;6.75;;;0.90;;
68365;SDS011;55283;51.466;5.478;2022-12-29T08:39:37;5.70;;;0.80;;
68365;SDS011;55283;51.466;5.478;2022-12-29T08:42:04;2.70;;;1.05;;
68365;SDS011;55283;51.466;5.478;2022-12-29T08:44:30;6.20;;;1.43;;
68365;SDS011;55283;51.466;5.478;2022-12-29T08:46:57;5.60;;;0.80;;
68365;SDS011;55283;51.466;5.478;2022-12-29T08:49:30;2.83;;;1.10;;
68365;SDS011;55283;51.466;5.478;2022-12-29T08:51:55;3.65;;;1.00;;
68365;SDS011;55283;51.466;5.478;2022-12-29T08:54:26;6.87;;;1.00;;
68365;SDS011;55283;51.466;5.478;2022-12-29T08:56:51;6.00;;;0.90;;
68365;SDS011;55283;51.466;5.478;2022-12-29T08:59:18;3.90;;;0.80;;
68365;SDS011;55283;51.466;5.478;2022-12-29T09:01:44;4.00;;;0.98;;
68365;SDS011;55283;51.466;5.478;2022-12-29T09:04:09;4.00;;;1.23;;
68365;SDS011;55283;51.466;5.478;2022-12-29T09:06:34;3.43;;;0.80;;
68365;SDS011;55283;51.466;5.478;2022-12-29T09:09:00;6.67;;;1.00;;
68365;SDS011;55283;51.466;5.478;2022-12-29T09:11:26;3.10;;;0.98;;
68365;SDS011;55283;51.466;5.478;2022-12-29T09:13:54;3.83;;;0.80;;
68365;SDS011;55283;51.466;5.478;2022-12-29T09:16:20;2.63;;;0.90;;
68365;SDS011;55283;51.466;5.478;2022-12-29T09:18:47;4.10;;;0.90;;
68365;SDS011;55283;51.466;5.478;2022-12-29T09:21:12;4.50;;;0.93;;
68365;SDS011;55283;51.466;5.478;2022-12-29T09:23:38;4.27;;;0.73;;
68365;SDS011;55283;51.466;5.478;2022-12-29T09:26:03;3.97;;;1.00;;
68365;SDS011;55283;51.466;5.478;2022-12-29T09:28:34;3.95;;;0.93;;
68365;SDS011;55283;51.466;5.478;2022-12-29T09:31:00;4.90;;;1.20;;
68365;SDS011;55283;51.466;5.478;2022-12-29T09:33:25;3.78;;;1.20;;
68365;SDS011;55283;51.466;5.478;2022-12-29T09:35:55;3.53;;;0.90;;
68365;SDS011;55283;51.466;5.478;2022-12-29T09:38:22;3.30;;;0.90;;
68365;SDS011;55283;51.466;5.478;2022-12-29T09:40:50;3.25;;;1.10;;
68365;SDS011;55283;51.466;5.478;2022-12-29T09:48:53;2.70;;;0.90;;
68365;SDS011;55283;51.466;5.478;2022-12-29T09:51:22;4.95;;;0.90;;
68365;SDS011;55283;51.466;5.478;2022-12-29T09:53:53;3.70;;;0.93;;
68365;SDS011;55283;51.466;5.478;2022-12-29T09:56:23;3.42;;;0.90;;
68365;SDS011;55283;51.466;5.478;2022-12-29T10:02:12;3.33;;;0.95;;
68365;SDS011;55283;51.466;5.478;2022-12-29T10:04:18;3.40;;;0.97;;
68365;SDS011;55283;51.466;5.478;2022-12-29T10:10:06;4.47;;;1.10;;
68365;SDS011;55283;51.466;5.478;2022-12-29T10:12:48;5.97;;;0.82;;
68365;SDS011;55283;51.466;5.478;2022-12-29T10:15:29;1.58;;;0.70;;
68365;SDS011;55283;51.466;5.478;2022-12-29T10:23:44;2.95;;;0.90;;
68365;SDS011;55283;51.466;5.478;2022-12-29T10:26:15;3.83;;;1.10;;
68365;SDS011;55283;51.466;5.478;2022-12-29T10:31:17;3.20;;;1.02;;
68365;SDS011;55283;51.466;5.478;2022-12-29T10:33:48;3.23;;;0.87;;
68365;SDS011;55283;51.466;5.478;2022-12-29T10:36:20;2.90;;;0.88;;
68365;SDS011;55283;51.466;5.478;2022-12-29T10:39:13;3.33;;;1.23;;
68365;SDS011;55283;51.466;5.478;2022-12-29T10:41:53;2.35;;;1.00;;
68365;SDS011;55283;51.466;5.478;2022-12-29T10:44:30;2.53;;;0.80;;
68365;SDS011;55283;51.466;5.478;2022-12-29T10:47:02;2.17;;;0.80;;
68365;SDS011;55283;51.466;5.478;2022-12-29T10:49:32;4.95;;;1.15;;
68365;SDS011;55283;51.466;5.478;2022-12-29T10:52:04;2.33;;;0.90;;
68365;SDS011;55283;51.466;5.478;2022-12-29T10:54:36;3.00;;;1.02;;
68365;SDS011;55283;51.466;5.478;2022-12-29T10:57:15;2.40;;;0.95;;
68365;SDS011;55283;51.466;5.478;2022-12-29T10:59:49;2.50;;;0.90;;
68365;SDS011;55283;51.466;5.478;2022-12-29T11:02:25;3.47;;;0.90;;
68365;SDS011;55283;51.466;5.478;2022-12-29T11:07:23;2.45;;;0.77;;
68365;SDS011;55283;51.466;5.478;2022-12-29T11:09:52;3.80;;;1.02;;
68365;SDS011;55283;51.466;5.478;2022-12-29T11:12:18;3.27;;;0.90;;
68365;SDS011;55283;51.466;5.478;2022-12-29T11:17:43;2.35;;;0.90;;
68365;SDS011;55283;51.466;5.478;2022-12-29T11:22:44;3.72;;;1.10;;
68365;SDS011;55283;51.466;5.478;2022-12-29T11:25:11;5.10;;;1.00;;
68365;SDS011;55283;51.466;5.478;2022-12-29T11:27:40;1.83;;;0.80;;
68365;SDS011;55283;51.466;5.478;2022-12-29T11:30:42;3.38;;;1.10;;
68365;SDS011;55283;51.466;5.478;2022-12-29T11:33:08;2.45;;;0.73;;
68365;SDS011;55283;51.466;5.478;2022-12-29T11:35:38;2.40;;;1.00;;
68365;SDS011;55283;51.466;5.478;2022-12-29T11:38:20;3.60;;;0.90;;
68365;SDS011;55283;51.466;5.478;2022-12-29T11:40:48;2.72;;;0.82;;
68365;SDS011;55283;51.466;5.478;2022-12-29T11:43:21;2.40;;;0.90;;
68365;SDS011;55283;51.466;5.478;2022-12-29T11:45:53;2.77;;;0.90;;
68365;SDS011;55283;51.466;5.478;2022-12-29T11:48:19;2.70;;;0.70;;
68365;SDS011;55283;51.466;5.478;2022-12-29T11:50:55;2.28;;;0.98;;
68365;SDS011;55283;51.466;5.478;2022-12-29T11:53:26;4.10;;;1.33;;
68365;SDS011;55283;51.466;5.478;2022-12-29T11:55:59;3.35;;;1.50;;
68365;SDS011;55283;51.466;5.478;2022-12-29T11:58:28;3.95;;;1.48;;
68365;SDS011;55283;51.466;5.478;2022-12-29T12:01:00;3.30;;;1.50;;
68365;SDS011;55283;51.466;5.478;2022-12-29T12:03:40;2.88;;;2.00;;
68365;SDS011;55283;51.466;5.478;2022-12-29T12:06:12;4.90;;;2.92;;
68365;SDS011;55283;51.466;5.478;2022-12-29T12:08:43;6.13;;;2.80;;
68365;SDS011;55283;51.466;5.478;2022-12-29T12:16:54;4.88;;;2.40;;
68365;SDS011;55283;51.466;5.478;2022-12-29T12:19:45;8.83;;;2.60;;
68365;SDS011;55283;51.466;5.478;2022-12-29T12:22:21;5.13;;;2.33;;
68365;SDS011;55283;51.466;5.478;2022-12-29T12:24:59;4.47;;;2.40;;
68365;SDS011;55283;51.466;5.478;2022-12-29T12:30:27;3.90;;;2.00;;
68365;SDS011;55283;51.466;5.478;2022-12-29T12:33:38;4.13;;;2.10;;
68365;SDS011;55283;51.466;5.478;2022-12-29T12:44:11;2.92;;;1.88;;
68365;SDS011;55283;51.466;5.478;2022-12-29T12:52:34;4.30;;;1.67;;
68365;SDS011;55283;51.466;5.478;2022-12-29T13:00:19;5.13;;;1.52;;
68365;SDS011;55283;51.466;5.478;2022-12-29T13:05:21;3.78;;;1.70;;
68365;SDS011;55283;51.466;5.478;2022-12-29T13:10:42;4.28;;;1.70;;
68365;SDS011;55283;51.466;5.478;2022-12-29T13:14:26;2.80;;;1.47;;
68365;SDS011;55283;51.466;5.478;2022-12-29T13:21:53;2.60;;;1.30;;
68365;SDS011;55283;51.466;5.478;2022-12-29T13:26:54;1.65;;;1.40;;
68365;SDS011;55283;51.466;5.478;2022-12-29T13:29:46;4.00;;;1.33;;
68365;SDS011;55283;51.466;5.478;2022-12-29T13:32:42;2.42;;;1.40;;
68365;SDS011;55283;51.466;5.478;2022-12-29T13:40:44;3.63;;;1.30;;
68365;SDS011;55283;51.466;5.478;2022-12-29T13:43:14;4.65;;;1.48;;
68365;SDS011;55283;51.466;5.478;2022-12-29T13:49:26;3.33;;;1.20;;
68365;SDS011;55283;51.466;5.478;2022-12-29T13:51:53;2.25;;;1.15;;
68365;SDS011;55283;51.466;5.478;2022-12-29T13:54:34;2.28;;;1.20;;
68365;SDS011;55283;51.466;5.478;2022-12-29T14:00:18;2.33;;;1.15;;
68365;SDS011;55283;51.466;5.478;2022-12-29T14:07:45;1.83;;;1.10;;
68365;SDS011;55283;51.466;5.478;2022-12-29T14:13:05;2.53;;;1.17;;
68365;SDS011;55283;51.466;5.478;2022-12-29T14:15:37;2.72;;;1.17;;
68365;SDS011;55283;51.466;5.478;2022-12-29T14:20:39;2.93;;;1.10;;
68365;SDS011;55283;51.466;5.478;2022-12-29T14:23:27;3.03;;;1.00;;
68365;SDS011;55283;51.466;5.478;2022-12-29T14:26:14;2.55;;;1.10;;
68365;SDS011;55283;51.466;5.478;2022-12-29T14:31:48;2.70;;;1.27;;
68365;SDS011;55283;51.466;5.478;2022-12-29T14:44:46;1.85;;;1.10;;
68365;SDS011;55283;51.466;5.478;2022-12-29T14:47:18;2.58;;;1.20;;
68365;SDS011;55283;51.466;5.478;2022-12-29T14:49:50;3.10;;;1.17;;
68365;SDS011;55283;51.466;5.478;2022-12-29T14:52:20;2.30;;;0.95;;
68365;SDS011;55283;51.466;5.478;2022-12-29T14:54:50;2.65;;;1.10;;
68365;SDS011;55283;51.466;5.478;2022-12-29T14:57:20;2.17;;;1.05;;
68365;SDS011;55283;51.466;5.478;2022-12-29T14:59:57;3.93;;;1.20;;
68365;SDS011;55283;51.466;5.478;2022-12-29T15:02:31;2.35;;;1.00;;
68365;SDS011;55283;51.466;5.478;2022-12-29T15:04:59;1.48;;;0.95;;
68365;SDS011;55283;51.466;5.478;2022-12-29T15:07:27;1.57;;;1.00;;
68365;SDS011;55283;51.466;5.478;2022-12-29T15:09:58;2.20;;;0.90;;
68365;SDS011;55283;51.466;5.478;2022-12-29T15:12:35;1.88;;;0.98;;
68365;SDS011;55283;51.466;5.478;2022-12-29T15:17:54;2.38;;;1.10;;
68365;SDS011;55283;51.466;5.478;2022-12-29T15:20:27;2.57;;;1.10;;
68365;SDS011;55283;51.466;5.478;2022-12-29T15:23:30;1.83;;;1.13;;
68365;SDS011;55283;51.466;5.478;2022-12-29T15:28:25;2.85;;;1.10;;
68365;SDS011;55283;51.466;5.478;2022-12-29T15:33:23;2.78;;;1.23;;
68365;SDS011;55283;51.466;5.478;2022-12-29T15:35:51;2.08;;;0.98;;
68365;SDS011;55283;51.466;5.478;2022-12-29T15:38:23;2.10;;;1.10;;
68365;SDS011;55283;51.466;5.478;2022-12-29T15:40:53;1.90;;;1.00;;
68365;SDS011;55283;51.466;5.478;2022-12-29T15:46:05;2.50;;;1.17;;
68365;SDS011;55283;51.466;5.478;2022-12-29T15:48:32;3.15;;;1.10;;
68365;SDS011;55283;51.466;5.478;2022-12-29T15:51:01;2.87;;;1.20;;
68365;SDS011;55283;51.466;5.478;2022-12-29T15:53:36;2.45;;;0.80;;
68365;SDS011;55283;51.466;5.478;2022-12-29T15:56:08;3.63;;;1.10;;
68365;SDS011;55283;51.466;5.478;2022-12-29T15:58:42;3.03;;;1.10;;
68365;SDS011;55283;51.466;5.478;2022-12-29T16:01:23;3.27;;;1.10;;
68365;SDS011;55283;51.466;5.478;2022-12-29T16:03:52;2.20;;;1.10;;
68365;SDS011;55283;51.466;5.478;2022-12-29T16:09:04;1.93;;;1.00;;
68365;SDS011;55283;51.466;5.478;2022-12-29T16:14:25;1.60;;;0.90;;
68365;SDS011;55283;51.466;5.478;2022-12-29T16:16:57;1.23;;;0.80;;
68365;SDS011;55283;51.466;5.478;2022-12-29T16:19:36;3.55;;;1.00;;
68365;SDS011;55283;51.466;5.478;2022-12-29T16:22:08;1.92;;;0.90;;
68365;SDS011;55283;51.466;5.478;2022-12-29T16:24:55;1.23;;;0.90;;
68365;SDS011;55283;51.466;5.478;2022-12-29T16:27:36;7.90;;;1.00;;
68365;SDS011;55283;51.466;5.478;2022-12-29T16:30:06;2.05;;;1.00;;
68365;SDS011;55283;51.466;5.478;2022-12-29T16:32:45;2.40;;;1.00;;
68365;SDS011;55283;51.466;5.478;2022-12-29T16:35:19;2.47;;;1.00;;
68365;SDS011;55283;51.466;5.478;2022-12-29T16:38:12;2.40;;;0.93;;
68365;SDS011;55283;51.466;5.478;2022-12-29T16:43:24;2.37;;;1.10;;
68365;SDS011;55283;51.466;5.478;2022-12-29T16:48:48;2.83;;;0.80;;
68365;SDS011;55283;51.466;5.478;2022-12-29T16:51:20;4.07;;;1.17;;
68365;SDS011;55283;51.466;5.478;2022-12-29T16:53:53;1.90;;;1.00;;
68365;SDS011;55283;51.466;5.478;2022-12-29T16:56:20;1.98;;;0.90;;
68365;SDS011;55283;51.466;5.478;2022-12-29T16:58:53;1.95;;;0.90;;
68365;SDS011;55283;51.466;5.478;2022-12-29T17:01:23;2.03;;;1.20;;
68365;SDS011;55283;51.466;5.478;2022-12-29T17:03:51;1.88;;;0.90;;
68365;SDS011;55283;51.466;5.478;2022-12-29T17:06:21;1.75;;;1.00;;
68365;SDS011;55283;51.466;5.478;2022-12-29T17:08:47;1.90;;;0.97;;
68365;SDS011;55283;51.466;5.478;2022-12-29T17:14:23;3.40;;;0.80;;
68365;SDS011;55283;51.466;5.478;2022-12-29T17:17:10;1.30;;;0.90;;
68365;SDS011;55283;51.466;5.478;2022-12-29T17:19:46;1.37;;;0.90;;
68365;SDS011;55283;51.466;5.478;2022-12-29T17:22:19;2.42;;;1.00;;
68365;SDS011;55283;51.466;5.478;2022-12-29T17:24:51;4.20;;;0.80;;
68365;SDS011;55283;51.466;5.478;2022-12-29T17:27:37;1.80;;;1.00;;
68365;SDS011;55283;51.466;5.478;2022-12-29T17:30:15;3.17;;;1.10;;
68365;SDS011;55283;51.466;5.478;2022-12-29T17:32:48;2.10;;;1.00;;
68365;SDS011;55283;51.466;5.478;2022-12-29T17:35:17;1.90;;;1.10;;
68365;SDS011;55283;51.466;5.478;2022-12-29T17:37:47;2.35;;;1.00;;
68365;SDS011;55283;51.466;5.478;2022-12-29T17:40:34;1.35;;;0.90;;
68365;SDS011;55283;51.466;5.478;2022-12-29T17:43:02;1.40;;;1.00;;
68365;SDS011;55283;51.466;5.478;2022-12-29T17:45:28;2.57;;;1.00;;
68365;SDS011;55283;51.466;5.478;2022-12-29T17:47:55;1.07;;;0.90;;
68365;SDS011;55283;51.466;5.478;2022-12-29T17:50:24;2.10;;;0.90;;
68365;SDS011;55283;51.466;5.478;2022-12-29T17:52:52;2.10;;;1.00;;